Time;durP1;ratioP1;P1;durP2;ratioP2;P2;SDS_P1;SDS_P2;PMS_P1;PMS_P2;Temp;Humidity;BMP_temperature;BMP_pressure;BME280_temperature;BME280_humidity;BME280_pressure;Samples;Min_cycle;Max_cycle;Signal;HPM_P1;HPM_P2
2022/02/26 00:01:37;;;;;;;73.97;30.37;;;;;;;2.17;61.89;99506.66;2248467;79;21299;-82
2022/02/26 00:04:38;;;;;;;60.33;25.80;;;;;;;2.13;61.80;99504.72;2249526;78;20900;-82
2022/02/26 00:07:38;;;;;;;66.87;27.80;;;;;;;2.09;61.81;99505.75;2249550;78;20947;-81
2022/02/26 00:10:39;;;;;;;67.77;27.37;;;;;;;2.06;62.10;99506.88;2249299;78;20916;-81
2022/02/26 00:13:39;;;;;;;60.93;27.97;;;;;;;2.09;62.14;99512.19;2249015;78;20896;-82
2022/02/26 00:16:40;;;;;;;79.63;32.57;;;;;;;2.11;62.14;99514.45;2249373;78;20952;-82
2022/02/26 00:19:40;;;;;;;87.67;37.07;;;;;;;2.12;62.20;99506.81;2249583;78;20924;-81
2022/02/26 00:22:41;;;;;;;84.90;37.60;;;;;;;2.13;62.29;99508.98;2274081;77;21003;-82
2022/02/26 00:25:41;;;;;;;80.07;34.83;;;;;;;2.14;62.33;99512.05;2291570;78;20933;-82
2022/02/26 00:28:42;;;;;;;65.73;30.50;;;;;;;2.13;62.43;99520.17;2291489;78;20983;-82
2022/02/26 00:31:42;;;;;;;139.37;79.50;;;;;;;2.13;62.56;99525.73;2291420;78;20947;-81
2022/02/26 00:34:42;;;;;;;186.97;110.53;;;;;;;3.14;77.48;99534.25;2291592;78;20901;-80
2022/02/26 00:37:43;;;;;;;88.87;46.03;;;;;;;8.12;70.90;99510.57;2291554;78;20865;-82
2022/02/26 00:40:43;;;;;;;67.90;33.53;;;;;;;9.96;56.33;99514.17;2291536;78;20944;-82
2022/02/26 00:43:44;;;;;;;54.23;26.20;;;;;;;8.34;51.54;99512.58;2291736;78;20951;-82
2022/02/26 00:46:45;;;;;;;56.23;27.10;;;;;;;6.83;52.63;99523.77;2291622;78;20956;-82
2022/02/26 00:49:52;;;;;;;55.57;26.67;;;;;;;5.87;53.50;99530.70;2291564;78;21047;-82
2022/02/26 00:52:54;;;;;;;51.90;25.43;;;;;;;5.17;54.51;99539.32;2291866;78;21028;-82
2022/02/26 00:55:55;;;;;;;53.83;26.33;;;;;;;4.62;55.32;99541.59;2291932;78;20984;-82
2022/02/26 00:58:56;;;;;;;53.07;24.77;;;;;;;4.21;56.05;99545.20;2291868;78;20916;-81
2022/02/26 01:01:57;;;;;;;56.00;25.33;;;;;;;3.91;56.72;99545.89;2291914;78;20929;-82
2022/02/26 01:04:57;;;;;;;55.07;25.77;;;;;;;3.63;57.31;99549.69;2291759;78;21355;-82
2022/02/26 01:07:58;;;;;;;53.67;25.03;;;;;;;3.45;57.84;99550.91;2291056;78;20987;-82
2022/02/26 01:10:58;;;;;;;59.10;24.90;;;;;;;3.33;58.17;99557.13;2292171;78;21263;-83
2022/02/26 01:13:59;;;;;;;51.23;23.80;;;;;;;3.18;58.48;99554.24;2292308;78;20925;-83
2022/02/26 01:16:59;;;;;;;52.17;24.03;;;;;;;3.06;58.81;99552.72;2291100;78;20936;-82
2022/02/26 01:20:00;;;;;;;42.77;22.57;;;;;;;2.98;59.11;99558.77;2290873;78;20964;-82
2022/02/26 01:23:00;;;;;;;56.27;24.67;;;;;;;2.90;59.34;99557.47;2291571;78;21374;-82
2022/02/26 01:26:01;;;;;;;53.97;22.63;;;;;;;2.86;59.37;99558.11;2291755;78;21282;-82
2022/02/26 01:29:03;;;;;;;52.03;21.53;;;;;;;2.80;59.62;99562.54;2291778;78;20948;-81
2022/02/26 01:32:03;;;;;;;51.47;23.07;;;;;;;2.75;59.83;99572.12;2291751;78;21078;-82
2022/02/26 01:35:04;;;;;;;48.83;23.23;;;;;;;2.73;59.96;99572.44;2291699;78;20964;-82
2022/02/26 01:38:04;;;;;;;48.73;22.87;;;;;;;2.69;60.08;99570.09;2290191;78;20968;-81
2022/02/26 01:41:05;;;;;;;44.00;21.63;;;;;;;2.67;60.10;99575.58;2290934;78;21381;-82
2022/02/26 01:44:06;;;;;;;49.80;23.53;;;;;;;2.68;60.11;99576.46;2291582;78;21359;-82
2022/02/26 01:47:06;;;;;;;52.60;21.70;;;;;;;2.68;60.02;99579.03;2290395;78;21304;-79
2022/02/26 01:50:06;;;;;;;46.17;21.00;;;;;;;2.67;59.94;99574.69;2290728;78;21435;-82
2022/02/26 01:53:07;;;;;;;50.27;21.83;;;;;;;2.66;59.97;99579.36;2289599;78;21039;-82
2022/02/26 01:56:08;;;;;;;49.80;21.43;;;;;;;2.67;59.89;99579.84;2289779;78;20912;-82
2022/02/26 01:59:08;;;;;;;51.43;21.87;;;;;;;2.65;59.96;99575.00;2291578;78;20940;-82
2022/02/26 02:02:08;;;;;;;48.63;21.63;;;;;;;2.62;59.86;99572.26;2291652;78;20905;-82
2022/02/26 02:05:09;;;;;;;80.33;40.30;;;;;;;2.59;59.96;99575.92;2291464;77;21004;-81
2022/02/26 02:08:10;;;;;;;156.73;88.97;;;;;;;4.60;71.59;99566.50;2291890;78;20936;-80
2022/02/26 02:11:10;;;;;;;93.37;50.13;;;;;;;8.32;65.58;99556.72;2291197;78;20968;-80
2022/02/26 02:14:11;;;;;;;58.17;28.30;;;;;;;10.99;56.66;99553.17;2291653;78;20968;-80
2022/02/26 02:17:11;;;;;;;55.57;26.47;;;;;;;9.92;49.78;99559.27;2291634;78;20937;-81
2022/02/26 02:20:12;;;;;;;52.77;24.67;;;;;;;8.19;49.44;99567.15;2291643;78;20909;-81
2022/02/26 02:23:12;;;;;;;50.10;24.07;;;;;;;6.96;50.22;99572.74;2291614;77;21038;-81
2022/02/26 02:26:13;;;;;;;69.97;23.73;;;;;;;6.11;51.13;99580.13;2292424;78;20955;-81
2022/02/26 02:29:13;;;;;;;47.90;22.10;;;;;;;5.47;52.27;99580.81;2291581;78;21426;-81
2022/02/26 02:32:13;;;;;;;45.97;22.17;;;;;;;5.00;53.09;99579.56;2292272;78;20905;-81
2022/02/26 02:35:14;;;;;;;46.63;21.03;;;;;;;4.61;53.84;99585.48;2291885;78;21021;-81
2022/02/26 02:38:14;;;;;;;46.73;19.97;;;;;;;4.29;54.47;99580.93;2292454;78;20984;-81
2022/02/26 02:41:15;;;;;;;43.97;21.17;;;;;;;3.99;55.10;99582.02;2291681;78;21486;-81
2022/02/26 02:44:16;;;;;;;45.53;21.77;;;;;;;3.80;55.68;99592.73;2292237;78;20958;-80
2022/02/26 02:47:16;;;;;;;47.43;22.97;;;;;;;3.63;56.17;99596.16;2292569;78;21280;-81
2022/02/26 02:50:17;;;;;;;43.67;22.90;;;;;;;3.48;56.58;99587.63;2292644;78;20982;-81
2022/02/26 02:53:18;;;;;;;53.90;24.23;;;;;;;3.36;57.09;99588.26;2292687;78;21035;-81
2022/02/26 02:56:19;;;;;;;52.40;23.30;;;;;;;3.27;57.50;99600.27;2292865;78;20927;-82
2022/02/26 02:59:19;;;;;;;52.13;23.33;;;;;;;3.19;57.79;99596.00;2292878;78;20948;-82
2022/02/26 03:02:20;;;;;;;59.57;23.73;;;;;;;3.11;58.11;99606.32;2292525;78;20960;-82
2022/02/26 03:05:21;;;;;;;58.57;23.87;;;;;;;3.02;58.53;99608.41;2292987;78;20924;-82
2022/02/26 03:08:24;;;;;;;75.27;29.37;;;;;;;2.97;58.78;99613.73;2292807;78;21370;-82
2022/02/26 03:11:24;;;;;;;83.90;30.83;;;;;;;2.95;58.99;99617.02;2291740;78;21052;-82
2022/02/26 03:14:24;;;;;;;60.10;24.60;;;;;;;2.91;59.30;99621.53;2292435;78;20984;-80
2022/02/26 03:17:25;;;;;;;50.47;21.63;;;;;;;2.88;59.44;99620.97;2291194;78;20967;-81
2022/02/26 03:20:25;;;;;;;47.13;20.80;;;;;;;2.84;59.63;99625.47;2292573;78;21383;-81
2022/02/26 03:23:26;;;;;;;44.33;19.67;;;;;;;2.80;59.73;99626.11;2286470;78;21420;-81
2022/02/26 03:26:26;;;;;;;46.43;20.67;;;;;;;2.74;59.88;99632.22;2282099;78;20974;-82
2022/02/26 03:29:28;;;;;;;51.43;22.03;;;;;;;2.74;60.05;99638.66;2282283;78;20969;-81
2022/02/26 03:32:29;;;;;;;52.40;22.37;;;;;;;2.71;60.16;99647.52;2282166;78;21021;-81
2022/02/26 03:35:29;;;;;;;51.53;21.87;;;;;;;2.70;60.27;99653.48;2282264;78;20890;-81
2022/02/26 03:38:30;;;;;;;64.30;21.27;;;;;;;2.68;60.37;99652.50;2282199;78;20974;-82
2022/02/26 03:41:30;;;;;;;65.90;21.70;;;;;;;2.62;60.52;99657.31;2282093;78;20874;-81
2022/02/26 03:44:31;;;;;;;47.87;19.20;;;;;;;2.59;60.72;99665.73;2281980;78;20922;-80
2022/02/26 03:47:31;;;;;;;53.30;18.37;;;;;;;2.56;60.75;99663.88;2281906;78;20887;-80
2022/02/26 03:50:32;;;;;;;37.00;17.63;;;;;;;2.53;60.91;99666.28;2281696;78;20930;-81
2022/02/26 03:53:32;;;;;;;41.93;18.47;;;;;;;2.48;61.05;99665.13;2281580;78;21008;-80
2022/02/26 03:56:33;;;;;;;47.60;18.93;;;;;;;2.49;61.39;99669.88;2281667;78;21290;-82
2022/02/26 03:59:34;;;;;;;34.57;17.87;;;;;;;2.46;61.56;99671.89;2281991;78;20879;-81
2022/02/26 04:02:35;;;;;;;43.47;20.17;;;;;;;2.41;61.51;99673.72;2281903;78;21301;-80
2022/02/26 04:05:35;;;;;;;46.97;21.57;;;;;;;2.35;61.78;99683.67;2282050;78;21302;-81
2022/02/26 04:08:35;;;;;;;59.80;20.27;;;;;;;2.23;61.78;99683.86;2281480;78;21004;-81
2022/02/26 04:11:36;;;;;;;43.83;19.60;;;;;;;2.11;62.10;99683.14;2282148;78;20976;-81
2022/02/26 04:14:36;;;;;;;37.07;19.27;;;;;;;2.11;62.41;99689.59;2282181;78;20994;-80
2022/02/26 04:17:37;;;;;;;45.93;20.03;;;;;;;2.11;62.45;99690.88;2282149;78;20949;-82
2022/02/26 04:20:38;;;;;;;56.43;22.70;;;;;;;2.10;62.42;99694.25;2282611;78;21293;-81
2022/02/26 04:23:38;;;;;;;44.47;18.50;;;;;;;2.09;62.40;99696.33;2263527;77;20967;-81
2022/02/26 04:26:39;;;;;;;46.27;19.97;;;;;;;2.02;62.31;99704.09;2250543;78;20940;-83
2022/02/26 04:29:39;;;;;;;47.73;19.33;;;;;;;1.95;62.54;99709.69;2250046;78;20983;-82
2022/02/26 04:32:40;;;;;;;46.30;19.60;;;;;;;1.90;62.79;99708.52;2249292;78;20929;-82
2022/02/26 04:35:40;;;;;;;31.67;16.47;;;;;;;1.85;63.13;99717.27;2249922;78;20996;-81
2022/02/26 04:38:41;;;;;;;41.10;17.03;;;;;;;1.84;63.19;99714.20;2250377;78;20956;-81
2022/02/26 04:41:41;;;;;;;31.80;15.97;;;;;;;1.78;63.36;99718.09;2249624;78;20972;-82
2022/02/26 04:44:42;;;;;;;39.40;17.43;;;;;;;1.75;63.55;99723.94;2249478;79;21007;-82
2022/02/26 04:47:43;;;;;;;41.77;19.03;;;;;;;1.73;63.73;99728.08;2248603;79;20979;-82
2022/02/26 04:50:43;;;;;;;40.57;17.90;;;;;;;1.72;63.93;99735.31;2248965;78;20960;-82
2022/02/26 04:53:44;;;;;;;39.67;17.27;;;;;;;1.71;63.93;99732.23;2247959;79;21007;-82
2022/02/26 04:56:44;;;;;;;33.90;16.10;;;;;;;1.69;64.06;99744.53;2247875;78;20947;-82
2022/02/26 04:59:45;;;;;;;41.10;17.40;;;;;;;1.63;64.29;99745.05;2248699;79;20921;-82
2022/02/26 05:02:45;;;;;;;36.17;16.10;;;;;;;1.65;64.58;99751.17;2250271;78;21272;-81
2022/02/26 05:05:46;;;;;;;34.27;15.83;;;;;;;1.68;64.81;99756.50;2249047;78;21391;-82
2022/02/26 05:08:46;;;;;;;37.17;15.93;;;;;;;1.70;64.91;99760.06;2247847;78;21396;-82
2022/02/26 05:11:46;;;;;;;35.67;15.70;;;;;;;1.70;64.96;99764.33;2248505;78;20948;-82
2022/02/26 05:14:47;;;;;;;37.60;17.70;;;;;;;1.71;65.13;99769.95;2249185;79;20984;-81
2022/02/26 05:17:47;;;;;;;38.30;16.93;;;;;;;1.73;65.12;99768.38;2248304;78;21414;-82
2022/02/26 05:20:48;;;;;;;33.53;15.07;;;;;;;1.70;65.07;99778.08;2248423;78;21029;-83
2022/02/26 05:23:49;;;;;;;31.93;15.57;;;;;;;1.62;64.81;99779.30;2271963;78;20988;-82
2022/02/26 05:26:49;;;;;;;32.73;15.17;;;;;;;1.49;64.79;99787.94;2289811;78;21037;-83
2022/02/26 05:29:50;;;;;;;38.93;16.63;;;;;;;1.41;65.05;99786.97;2290192;78;20974;-82
2022/02/26 05:32:50;;;;;;;40.23;16.33;;;;;;;1.36;65.31;99794.80;2290065;78;20943;-82
2022/02/26 05:35:51;;;;;;;32.37;16.57;;;;;;;1.26;65.28;99791.64;2290156;78;20940;-82
2022/02/26 05:38:51;;;;;;;45.33;21.37;;;;;;;1.16;65.51;99799.97;2290016;78;20975;-83
2022/02/26 05:41:52;;;;;;;42.07;16.93;;;;;;;1.05;65.68;99806.99;2291675;78;20953;-83
2022/02/26 05:44:53;;;;;;;32.77;16.13;;;;;;;0.96;65.78;99811.54;2291618;78;21312;-83
2022/02/26 05:47:53;;;;;;;32.83;16.43;;;;;;;0.76;65.79;99814.06;2290792;78;21458;-83
2022/02/26 05:50:54;;;;;;;34.93;16.17;;;;;;;0.63;66.00;99820.47;2291188;78;20963;-83
2022/02/26 05:53:54;;;;;;;36.50;16.20;;;;;;;0.55;66.28;99831.53;2292258;78;21023;-81
2022/02/26 05:56:55;;;;;;;79.73;42.37;;;;;;;0.55;66.50;99839.63;2292536;78;20940;-83
2022/02/26 05:59:55;;;;;;;55.87;21.97;;;;;;;0.56;66.78;99837.16;2291757;77;21010;-82
2022/02/26 06:02:56;;;;;;;74.17;19.93;;;;;;;0.64;66.89;99838.56;2291021;78;20987;-82
2022/02/26 06:05:56;;;;;;;60.53;17.97;;;;;;;0.78;67.16;99834.33;2291777;78;20983;-82
2022/02/26 06:08:57;;;;;;;60.43;17.73;;;;;;;1.01;67.19;99840.13;2291557;78;21401;-83
2022/02/26 06:11:57;;;;;;;40.93;17.80;;;;;;;1.23;67.15;99845.46;2292445;78;20962;-83
2022/02/26 06:14:58;;;;;;;48.17;16.60;;;;;;;1.45;67.12;99844.25;2292212;78;20982;-83
2022/02/26 06:17:58;;;;;;;51.43;18.00;;;;;;;1.66;67.37;99848.18;2292281;78;20955;-83
2022/02/26 06:21:02;;;;;;;41.33;17.60;;;;;;;1.90;67.16;99852.70;2292990;78;20911;-82
2022/02/26 06:24:02;;;;;;;60.47;27.83;;;;;;;2.06;66.47;99850.67;2269510;77;21003;-81
2022/02/26 06:27:03;;;;;;;45.73;21.00;;;;;;;2.20;66.16;99854.98;2250369;78;20928;-82
2022/02/26 06:30:03;;;;;;;67.00;30.50;;;;;;;2.29;66.20;99864.55;2250808;78;20937;-82
2022/02/26 06:33:04;;;;;;;83.70;32.10;;;;;;;2.35;66.06;99865.31;2250820;78;20932;-82
2022/02/26 06:36:05;;;;;;;88.07;44.20;;;;;;;2.43;65.70;99866.67;2250524;79;21324;-82
2022/02/26 06:39:05;;;;;;;127.67;55.47;;;;;;;2.50;65.33;99870.98;2250076;79;20919;-82
2022/02/26 06:42:05;;;;;;;154.83;53.03;;;;;;;2.56;65.12;99874.33;2249184;78;20955;-82
2022/02/26 06:45:06;;;;;;;102.90;48.67;;;;;;;2.67;65.00;99878.87;2249351;78;20956;-81
2022/02/26 06:48:07;;;;;;;94.93;45.27;;;;;;;2.72;64.71;99882.21;2249778;79;20967;-82
2022/02/26 06:51:08;;;;;;;93.73;43.90;;;;;;;2.77;64.67;99885.06;2248658;79;20951;-76
2022/02/26 06:54:09;;;;;;;267.43;47.77;;;;;;;2.85;64.62;99900.18;2247960;79;21006;-76
2022/02/26 06:57:10;;;;;;;85.17;39.20;;;;;;;2.92;64.52;99892.41;2248766;78;20940;-75
2022/02/26 07:00:13;;;;;;;79.83;37.50;;;;;;;3.08;64.36;99898.05;2248604;78;20900;-76
2022/02/26 07:03:13;;;;;;;73.93;34.43;;;;;;;3.28;64.25;99904.36;2247140;78;20920;-76
2022/02/26 07:06:14;;;;;;;74.97;33.33;;;;;;;3.51;63.71;99906.59;2248019;78;20956;-75
2022/02/26 07:09:14;;;;;;;58.27;27.00;;;;;;;3.71;63.55;99916.34;2247235;78;20983;-76
2022/02/26 07:12:16;;;;;;;35.23;18.43;;;;;;;3.93;63.33;99921.39;2247488;79;21097;-76
2022/02/26 07:15:17;;;;;;;30.47;14.90;;;;;;;4.06;62.51;99931.59;2247982;79;20992;-76
2022/02/26 07:18:18;;;;;;;27.87;14.30;;;;;;;4.06;62.53;99931.59;2248914;79;21339;-75
2022/02/26 07:21:18;;;;;;;27.83;14.80;;;;;;;4.21;62.48;99936.30;2248885;78;20904;-76
2022/02/26 07:24:18;;;;;;;29.77;13.47;;;;;;;4.46;61.79;99936.84;2248653;77;21406;-76
2022/02/26 07:27:19;;;;;;;28.80;14.13;;;;;;;4.47;61.40;99938.63;2249110;78;21284;-76
2022/02/26 07:30:19;;;;;;;29.43;14.37;;;;;;;4.47;61.27;99939.91;2248522;79;21198;-76
2022/02/26 07:33:20;;;;;;;33.47;14.70;;;;;;;4.56;61.42;99947.67;2248169;78;20944;-76
2022/02/26 07:36:21;;;;;;;31.40;15.93;;;;;;;4.72;61.00;99951.15;2248770;79;20960;-77
2022/02/26 07:39:21;;;;;;;36.53;17.63;;;;;;;4.64;60.53;99950.27;2246681;79;20928;-76
2022/02/26 07:42:21;;;;;;;32.30;15.83;;;;;;;4.61;61.17;99952.28;2248220;78;20968;-77
2022/02/26 07:45:22;;;;;;;30.73;14.77;;;;;;;4.77;60.62;99956.56;2246942;79;21399;-76
2022/02/26 07:48:22;;;;;;;27.90;13.70;;;;;;;4.87;59.88;99952.34;2248614;78;21320;-82
2022/02/26 07:51:23;;;;;;;33.77;14.93;;;;;;;4.94;59.90;99959.62;2249757;78;20909;-82
2022/02/26 07:54:23;;;;;;;30.07;14.07;;;;;;;4.94;59.33;99962.20;2249236;78;21035;-82
2022/02/26 07:57:25;;;;;;;29.80;15.10;;;;;;;4.95;59.62;99956.63;2249624;78;20924;-82
2022/02/26 08:00:26;;;;;;;36.67;17.13;;;;;;;4.91;59.56;99968.52;2251065;79;20963;-82
2022/02/26 08:03:26;;;;;;;29.83;15.40;;;;;;;4.80;59.29;99966.66;2250397;78;20957;-82
2022/02/26 08:06:27;;;;;;;32.63;14.23;;;;;;;4.97;59.41;99974.41;2249383;79;20920;-83
2022/02/26 08:09:27;;;;;;;28.27;13.90;;;;;;;5.07;59.24;99974.97;2249719;78;20987;-84
2022/02/26 08:12:28;;;;;;;29.37;13.13;;;;;;;5.17;59.47;99975.44;2248214;78;21505;-83
2022/02/26 08:15:28;;;;;;;28.93;13.50;;;;;;;5.36;59.27;99969.11;2247939;79;20927;-82
2022/02/26 08:18:29;;;;;;;28.13;13.13;;;;;;;5.53;59.40;99980.31;2248671;79;21238;-83
2022/02/26 08:21:34;;;;;;;25.00;13.30;;;;;;;5.73;58.54;99979.19;2248045;79;21019;-82
2022/02/26 08:24:32;;;;;;;29.77;14.03;;;;;;;5.79;58.45;99986.78;2264884;77;21067;-81
2022/02/26 08:27:32;;;;;;;25.40;13.00;;;;;;;5.92;58.11;99986.59;2279085;78;20934;-82
2022/02/26 08:30:33;;;;;;;24.13;12.73;;;;;;;6.09;58.20;99987.02;2279575;78;20997;-81
2022/02/26 08:33:33;;;;;;;26.93;14.17;;;;;;;6.49;57.84;99994.08;2280496;78;20949;-81
2022/02/26 08:36:34;;;;;;;30.13;13.23;;;;;;;6.55;57.13;99997.84;2279559;78;20977;-81
2022/02/26 08:39:34;;;;;;;24.87;12.63;;;;;;;6.63;57.09;99996.89;2278984;78;21091;-81
2022/02/26 08:42:35;;;;;;;23.20;13.00;;;;;;;6.76;57.26;99997.03;2279969;78;20950;-81
2022/02/26 08:45:35;;;;;;;27.07;13.53;;;;;;;6.83;56.87;100004.28;2279728;78;21005;-81
2022/02/26 08:48:36;;;;;;;25.07;12.87;;;;;;;6.81;56.53;100011.11;2280225;78;20984;-82
2022/02/26 08:51:36;;;;;;;24.03;12.77;;;;;;;6.75;56.60;100015.61;2280671;78;21356;-82
2022/02/26 08:54:37;;;;;;;25.87;11.83;;;;;;;6.62;56.57;100018.47;2280884;78;20981;-81
2022/02/26 08:57:37;;;;;;;24.07;12.60;;;;;;;6.37;57.16;100022.52;2281281;78;20926;-80
2022/02/26 09:00:41;;;;;;;22.63;12.70;;;;;;;6.26;57.31;100027.59;2281653;78;20968;-80
2022/02/26 09:03:41;;;;;;;29.00;12.43;;;;;;;6.23;57.97;100026.16;2280373;78;21081;-80
2022/02/26 09:06:42;;;;;;;28.10;12.00;;;;;;;6.24;57.50;100029.23;2280145;78;20953;-80
2022/02/26 09:09:42;;;;;;;27.07;12.37;;;;;;;6.28;57.34;100034.16;2279211;78;21373;-81
2022/02/26 09:12:43;;;;;;;22.37;11.30;;;;;;;6.37;57.27;100027.70;2279904;78;21001;-80
2022/02/26 09:15:43;;;;;;;21.83;12.30;;;;;;;6.81;56.90;100030.16;2281511;78;20953;-80
2022/02/26 09:18:45;;;;;;;23.73;11.73;;;;;;;7.20;55.65;100028.90;2258752;78;20962;-80
2022/02/26 09:21:48;;;;;;;23.53;11.40;;;;;;;7.30;55.87;100034.97;2280508;78;20958;-81
2022/02/26 09:24:48;;;;;;;22.80;10.90;;;;;;;7.24;55.38;100042.50;2262518;77;21102;-79
2022/02/26 09:27:49;;;;;;;22.37;11.77;;;;;;;7.09;55.89;100044.41;2248989;78;20943;-78
2022/02/26 09:30:50;;;;;;;23.67;11.33;;;;;;;6.99;56.23;100046.60;2246745;79;21007;-78
2022/02/26 09:33:50;;;;;;;19.73;10.37;;;;;;;6.91;56.70;100045.33;2247090;78;20928;-82
2022/02/26 09:36:52;;;;;;;16.37;9.60;;;;;;;6.86;56.81;100052.02;2247153;79;20998;-81
2022/02/26 09:39:54;;;;;;;16.70;9.43;;;;;;;6.79;57.24;100060.34;2247615;79;21018;-82
2022/02/26 09:42:54;;;;;;;20.27;9.23;;;;;;;6.75;57.46;100056.23;2246548;79;20988;-83
2022/02/26 09:45:55;;;;;;;16.77;9.20;;;;;;;6.85;57.92;100063.22;2247865;78;21354;-82
2022/02/26 09:48:55;;;;;;;16.83;9.93;;;;;;;6.86;57.33;100068.00;2247675;78;20987;-81
2022/02/26 09:51:58;;;;;;;17.33;9.37;;;;;;;6.92;57.43;100069.17;2248279;79;20984;-81
2022/02/26 09:54:58;;;;;;;17.70;9.17;;;;;;;6.95;57.06;100065.45;2249154;79;21019;-81
2022/02/26 09:57:59;;;;;;;22.77;9.60;;;;;;;7.14;57.15;100071.47;2249029;78;21711;-82
2022/02/26 10:01:05;;;;;;;15.00;9.43;;;;;;;7.55;56.55;100075.89;2249104;78;21249;-81
2022/02/26 10:04:06;;;;;;;23.37;10.10;;;;;;;7.75;55.98;100075.44;2247974;78;20999;-81
2022/02/26 10:10:09;;;;;;;13.67;9.50;;;;;;;7.80;55.46;100088.22;2221326;79;21003;-82
2022/02/26 10:13:10;;;;;;;17.80;9.70;;;;;;;7.67;55.52;100092.90;2248686;78;21311;-82
2022/02/26 10:16:10;;;;;;;19.40;10.23;;;;;;;7.52;55.67;100090.94;2248127;78;20916;-81
2022/02/26 10:19:11;;;;;;;18.60;9.30;;;;;;;7.34;55.64;100088.42;2248146;79;21014;-82
2022/02/26 10:22:11;;;;;;;12.87;8.17;;;;;;;7.40;55.84;100094.30;2248573;78;20969;-82
2022/02/26 10:25:14;;;;;;;14.80;8.50;;;;;;;7.62;55.71;100093.11;2247749;77;21047;-82
2022/02/26 10:28:15;;;;;;;13.53;8.07;;;;;;;7.83;55.48;100094.89;2248466;79;21088;-83
2022/02/26 10:31:15;;;;;;;17.73;9.53;;;;;;;7.86;54.35;100092.41;2248252;78;20914;-85
2022/02/26 10:34:16;;;;;;;20.93;13.27;;;;;;;7.91;54.24;100096.98;2248234;78;20955;-83
2022/02/26 10:37:16;;;;;;;18.30;11.67;;;;;;;7.98;54.55;100099.43;2248327;78;20919;-84
2022/02/26 10:40:17;;;;;;;15.97;9.30;;;;;;;8.15;54.15;100102.32;2249092;79;20905;-83
2022/02/26 10:43:20;;;;;;;12.10;7.80;;;;;;;8.23;53.41;100098.73;2249334;78;20889;-82
2022/02/26 10:46:21;;;;;;;15.47;9.83;;;;;;;8.27;53.44;100106.72;2247903;78;20935;-82
2022/02/26 10:49:21;;;;;;;16.63;10.43;;;;;;;8.32;53.59;100105.61;2248906;79;21011;-82
2022/02/26 10:52:22;;;;;;;12.30;8.33;;;;;;;8.20;53.36;100108.59;2249110;78;20896;-83
2022/02/26 10:55:22;;;;;;;15.30;8.97;;;;;;;7.93;53.21;100106.15;2248446;78;20979;-84
2022/02/26 10:58:23;;;;;;;17.50;10.10;;;;;;;7.85;53.46;100108.42;2249555;78;20967;-82
2022/02/26 11:01:23;;;;;;;427.37;31.67;;;;;;;7.69;54.20;100117.66;2250106;78;20949;-80
2022/02/26 11:04:24;;;;;;;21.07;9.53;;;;;;;7.44;54.34;100114.80;2249640;78;20928;-83
2022/02/26 11:07:26;;;;;;;13.80;8.87;;;;;;;7.32;54.76;100119.05;2249068;78;20933;-84
2022/02/26 11:10:26;;;;;;;15.37;9.43;;;;;;;7.27;55.32;100120.14;2250661;79;21004;-85
2022/02/26 11:13:27;;;;;;;15.13;7.90;;;;;;;7.21;55.10;100121.16;2249987;78;20916;-82
2022/02/26 11:16:27;;;;;;;12.97;6.77;;;;;;;7.13;54.95;100125.11;2248940;78;21009;-82
2022/02/26 11:19:29;;;;;;;19.50;8.53;;;;;;;7.10;55.02;100121.48;2249687;79;20956;-84
2022/02/26 11:22:30;;;;;;;13.97;7.47;;;;;;;7.00;55.10;100117.58;2247377;79;20980;-84
2022/02/26 11:25:30;;;;;;;8.57;5.90;;;;;;;7.02;55.41;100124.63;2268839;78;21439;-83
2022/02/26 11:28:32;;;;;;;10.57;5.80;;;;;;;7.05;54.85;100116.08;2280383;78;21017;-84
2022/02/26 11:31:32;;;;;;;9.17;6.13;;;;;;;7.08;54.61;100118.82;2281439;77;21067;-84
2022/02/26 11:34:33;;;;;;;9.43;5.80;;;;;;;7.01;54.44;100122.84;2281919;78;20921;-83
2022/02/26 11:37:33;;;;;;;61.60;8.47;;;;;;;6.95;54.29;100122.97;2281617;78;20922;-83
2022/02/26 11:40:34;;;;;;;10.30;6.47;;;;;;;6.93;54.80;100120.27;2281780;78;20882;-83
2022/02/26 11:43:35;;;;;;;11.23;6.07;;;;;;;6.95;54.63;100121.27;2282124;78;20887;-84
2022/02/26 11:46:38;;;;;;;12.90;7.40;;;;;;;6.89;54.74;100127.44;2282021;77;20975;-83
2022/02/26 11:49:38;;;;;;;13.60;7.13;;;;;;;6.79;54.92;100129.12;2281717;77;20997;-84
2022/02/26 11:52:38;;;;;;;12.87;8.07;;;;;;;6.68;55.51;100132.91;2281860;78;20930;-83
2022/02/26 11:55:39;;;;;;;13.00;8.87;;;;;;;6.60;55.74;100130.36;2281357;77;21040;-83
2022/02/26 11:58:39;;;;;;;14.57;9.30;;;;;;;6.49;56.33;100132.84;2281473;78;20954;-83
2022/02/26 12:01:40;;;;;;;19.60;10.70;;;;;;;6.36;56.85;100136.14;2279801;78;21059;-82
2022/02/26 12:04:41;;;;;;;16.57;9.27;;;;;;;6.32;56.90;100131.62;2280979;78;20929;-82
2022/02/26 12:07:41;;;;;;;11.10;6.60;;;;;;;6.33;57.27;100131.21;2280562;78;20953;-82
2022/02/26 12:10:42;;;;;;;9.77;6.90;;;;;;;6.37;57.03;100137.03;2280993;78;20996;-82
2022/02/26 12:13:42;;;;;;;9.93;6.20;;;;;;;6.46;57.51;100140.07;2280295;78;20984;-82
2022/02/26 12:16:43;;;;;;;10.40;5.70;;;;;;;6.60;56.59;100137.73;2279262;78;20922;-82
2022/02/26 12:19:43;;;;;;;10.37;6.60;;;;;;;6.75;56.72;100138.87;2278132;78;21454;-82
2022/02/26 12:22:44;;;;;;;10.57;6.07;;;;;;;6.83;56.13;100141.42;2278432;78;21368;-83
2022/02/26 12:25:44;;;;;;;13.83;7.17;;;;;;;6.84;55.76;100143.20;2258630;77;20979;-81
2022/02/26 12:28:45;;;;;;;11.80;7.17;;;;;;;6.86;56.15;100136.78;2247810;79;20979;-82
2022/02/26 12:31:46;;;;;;;11.83;7.93;;;;;;;6.93;56.30;100133.66;2247372;78;21407;-82
2022/02/26 12:34:46;;;;;;;14.07;7.03;;;;;;;6.99;56.06;100141.77;2248934;78;21319;-82
2022/02/26 12:37:47;;;;;;;14.60;8.17;;;;;;;6.95;56.22;100131.64;2249725;79;20999;-82
2022/02/26 12:40:48;;;;;;;15.63;10.17;;;;;;;6.97;56.50;100139.09;2249500;78;20921;-81
2022/02/26 12:43:48;;;;;;;17.30;11.37;;;;;;;6.99;56.28;100134.86;2250185;78;20915;-82
2022/02/26 12:46:54;;;;;;;15.47;9.97;;;;;;;6.95;56.63;100136.84;2249955;78;20932;-82
2022/02/26 12:49:55;;;;;;;18.17;11.73;;;;;;;6.88;56.72;100136.45;2250350;79;20995;-82
2022/02/26 12:52:57;;;;;;;22.03;12.50;;;;;;;6.84;57.24;100141.02;2250528;78;21299;-82
2022/02/26 12:55:58;;;;;;;15.97;10.53;;;;;;;6.89;57.51;100137.81;2250409;79;20973;-82
2022/02/26 12:58:59;;;;;;;15.50;9.87;;;;;;;6.89;57.51;100137.81;2250524;78;20948;-82
2022/02/26 13:02:00;;;;;;;21.30;12.07;;;;;;;6.94;57.83;100132.47;2248999;79;21071;-81
2022/02/26 13:05:00;;;;;;;20.87;10.93;;;;;;;6.91;57.94;100136.18;2248648;78;20968;-82
2022/02/26 13:08:01;;;;;;;18.83;10.47;;;;;;;6.99;58.25;100130.08;2249036;78;21019;-82
2022/02/26 13:11:02;;;;;;;16.80;10.70;;;;;;;6.97;57.65;100133.02;2249256;78;20944;-82
2022/02/26 13:14:02;;;;;;;18.37;10.97;;;;;;;6.98;57.90;100136.09;2249220;79;20912;-82
2022/02/26 13:17:03;;;;;;;23.07;11.43;;;;;;;7.01;58.19;100132.34;2248576;78;20974;-83
2022/02/26 13:20:04;;;;;;;21.27;11.07;;;;;;;7.09;57.95;100137.48;2248236;79;20923;-81
2022/02/26 13:23:04;;;;;;;15.40;9.73;;;;;;;7.10;57.86;100131.87;2247697;79;21382;-82
2022/02/26 13:26:05;;;;;;;10.73;6.50;;;;;;;7.13;57.53;100125.52;2273807;77;21003;-82
2022/02/26 13:29:06;;;;;;;9.83;6.57;;;;;;;7.05;56.04;100125.17;2288651;78;21010;-80
2022/02/26 13:32:06;;;;;;;10.67;6.13;;;;;;;6.97;55.73;100130.42;2289018;78;21357;-81
2022/02/26 13:35:07;;;;;;;16.33;7.63;;;;;;;6.99;55.21;100136.57;2289218;78;20912;-82
2022/02/26 13:38:07;;;;;;;12.97;7.63;;;;;;;6.98;55.40;100132.20;2288991;78;20999;-81
2022/02/26 13:41:08;;;;;;;16.07;6.73;;;;;;;6.93;55.30;100134.95;2290138;78;20940;-81
2022/02/26 13:44:08;;;;;;;18.40;11.10;;;;;;;6.93;55.67;100135.84;2291824;78;20940;-81
2022/02/26 13:47:12;;;;;;;11.90;7.37;;;;;;;6.96;55.15;100145.52;2291696;78;20932;-83
2022/02/26 13:50:13;;;;;;;8.93;6.47;;;;;;;6.94;54.94;100150.63;2291881;78;20997;-82
2022/02/26 13:53:13;;;;;;;10.73;6.57;;;;;;;6.88;55.07;100154.20;2291611;78;20905;-82
2022/02/26 13:56:14;;;;;;;15.30;7.57;;;;;;;6.82;55.66;100155.22;2290978;78;21010;-82
2022/02/26 13:59:14;;;;;;;24.63;11.43;;;;;;;6.88;55.92;100155.91;2290941;78;21415;-81
2022/02/26 14:02:15;;;;;;;25.60;13.43;;;;;;;6.86;54.34;100154.55;2290302;78;20947;-81